createdAt,value
2023-05-05T00:00:39.996Z,72.2261
2023-05-05T00:01:42.582Z,72.4144
2023-05-05T00:02:45.289Z,72.0989
2023-05-05T00:03:47.955Z,72.1201
2023-05-05T00:04:50.440Z,72.3446
2023-05-05T00:05:53.019Z,72.3134
2023-05-05T00:06:55.620Z,72.3974
2023-05-05T00:07:58.224Z,73.0858
2023-05-05T00:09:00.845Z,74.6127
2023-05-05T00:10:03.435Z,75.4324
2023-05-05T00:11:06.045Z,75.9478
2023-05-05T00:12:08.632Z,76.3100
2023-05-05T00:13:11.387Z,76.4462
2023-05-05T00:14:13.857Z,76.8329
2023-05-05T00:15:16.464Z,77.3716
2023-05-05T00:16:19.040Z,77.2287
2023-05-05T00:17:21.695Z,77.1473
2023-05-05T00:18:24.256Z,76.6949
2023-05-05T00:19:26.881Z,75.9330
2023-05-05T00:20:29.557Z,75.5278
2023-05-05T00:21:32.094Z,75.4307
2023-05-05T00:22:34.679Z,75.2623
2023-05-05T00:23:37.308Z,75.0541
2023-05-05T00:24:39.900Z,74.7792
2023-05-05T00:25:42.531Z,74.7271
2023-05-05T00:26:45.107Z,74.5611
2023-05-05T00:27:47.739Z,74.7983
2023-05-05T00:28:50.341Z,74.8600
2023-05-05T00:29:52.946Z,74.5293
2023-05-05T00:30:55.533Z,74.4608
2023-05-05T00:31:58.179Z,74.3519
2023-05-05T00:33:00.778Z,73.9456
2023-05-05T00:34:03.369Z,73.4479
2023-05-05T00:35:05.942Z,73.1048
2023-05-05T00:36:08.580Z,73.2213
2023-05-05T00:37:11.167Z,73.1692
2023-05-05T00:38:13.791Z,73.1696
2023-05-05T00:39:16.359Z,72.8405
2023-05-05T00:40:18.989Z,72.5584
2023-05-05T00:41:21.619Z,72.3418
2023-05-05T00:42:24.189Z,72.1956
2023-05-05T00:43:26.771Z,72.2809
2023-05-05T00:44:29.406Z,72.5023
2023-05-05T00:45:31.984Z,72.3220
2023-05-05T00:46:34.616Z,72.0395
2023-05-05T00:47:37.240Z,72.0590
2023-05-05T00:48:39.803Z,72.1020
2023-05-05T00:49:42.377Z,72.4216
2023-05-05T00:50:45.027Z,73.1727
2023-05-05T00:51:47.592Z,73.4568
2023-05-05T00:52:50.219Z,73.9881
2023-05-05T00:53:52.800Z,74.2508
2023-05-05T00:54:55.437Z,74.5946
2023-05-05T00:55:58.001Z,74.2065
2023-05-05T00:57:00.632Z,74.3258
2023-05-05T00:58:03.219Z,74.3753
2023-05-05T00:59:05.843Z,74.0912
2023-05-05T01:00:08.790Z,73.7005
2023-05-05T01:01:11.168Z,73.7787
2023-05-05T01:02:13.618Z,73.8502
2023-05-05T01:03:16.303Z,73.7505
2023-05-05T01:04:18.825Z,73.5786
2023-05-05T01:05:21.438Z,73.4768
2023-05-05T01:06:24.026Z,73.3646
2023-05-05T01:07:26.661Z,72.9934
2023-05-05T01:08:29.243Z,72.8923
2023-05-05T01:09:31.859Z,72.7134
2023-05-05T01:10:34.429Z,72.6614
2023-05-05T01:11:37.047Z,73.6069
2023-05-05T01:12:39.650Z,73.7262
2023-05-05T01:13:42.254Z,73.5791
2023-05-05T01:14:44.826Z,73.4413
2023-05-05T01:15:47.470Z,73.4782
2023-05-05T01:16:50.035Z,73.5408
2023-05-05T01:17:52.751Z,74.0292
2023-05-05T01:18:55.263Z,74.2975
2023-05-05T01:19:57.865Z,74.3728
2023-05-05T01:21:00.481Z,74.6582
2023-05-05T01:22:03.067Z,74.0928
2023-05-05T01:23:05.659Z,73.9144
2023-05-05T01:24:08.313Z,73.7448
2023-05-05T01:25:10.867Z,73.3522
2023-05-05T01:26:14.276Z,73.6639
2023-05-05T01:27:16.073Z,74.2318
2023-05-05T01:28:18.693Z,74.4881
2023-05-05T01:29:21.312Z,74.0627
2023-05-05T01:30:23.907Z,73.5854
2023-05-05T01:31:26.507Z,73.5906
2023-05-05T01:32:29.213Z,73.3515
2023-05-05T01:33:31.678Z,73.2518
2023-05-05T01:34:34.320Z,73.2664
2023-05-05T01:35:36.880Z,72.9335
2023-05-05T01:36:39.519Z,72.7620
2023-05-05T01:37:42.095Z,72.6008
2023-05-05T01:38:44.717Z,72.3352
2023-05-05T01:39:47.305Z,72.2700
2023-05-05T01:40:49.950Z,72.1581
2023-05-05T01:41:52.508Z,72.6552
2023-05-05T01:42:55.130Z,72.4279
2023-05-05T01:45:31.978Z,72.5208
2023-05-05T01:46:34.520Z,72.5929
2023-05-05T01:47:37.168Z,72.9276
2023-05-05T01:48:41.761Z,72.4811
2023-05-05T01:49:42.351Z,72.4580
2023-05-05T01:50:44.932Z,73.5958
2023-05-05T01:51:47.850Z,74.1627
2023-05-05T01:52:50.169Z,74.2776
2023-05-05T01:53:52.767Z,73.8701
2023-05-05T01:54:55.358Z,73.4534
2023-05-05T01:55:57.993Z,73.2049
2023-05-05T01:57:00.568Z,72.8945
2023-05-05T01:58:03.289Z,72.6976
2023-05-05T01:59:05.752Z,72.6244
2023-05-05T02:00:08.657Z,72.8047
2023-05-05T02:01:11.091Z,73.2051
2023-05-05T02:02:13.617Z,74.0232
2023-05-05T02:03:16.345Z,75.0143
2023-05-05T02:04:18.801Z,76.0645
2023-05-05T02:05:21.385Z,76.4609
2023-05-05T02:06:24.011Z,76.8140
2023-05-05T02:07:26.594Z,76.3907
2023-05-05T02:08:29.223Z,75.5109
2023-05-05T02:09:31.798Z,74.7733
2023-05-05T02:10:34.437Z,74.5491
2023-05-05T02:11:37.016Z,74.8771
2023-05-05T02:12:39.696Z,75.0707
2023-05-05T02:13:42.277Z,74.7156
2023-05-05T02:14:44.867Z,74.4170
2023-05-05T02:15:47.433Z,74.1488
2023-05-05T02:16:50.052Z,73.8477
2023-05-05T02:17:52.676Z,73.6761
2023-05-05T02:18:55.256Z,73.7440
2023-05-05T02:19:57.833Z,73.6747
2023-05-05T02:21:00.561Z,73.4932
2023-05-05T02:23:42.086Z,74.4721
2023-05-05T02:24:44.674Z,75.3440
2023-05-05T02:25:47.302Z,75.1740
2023-05-05T02:26:49.891Z,75.0291
2023-05-05T02:27:52.524Z,74.7324
2023-05-05T02:28:55.104Z,74.1443
2023-05-05T02:29:57.859Z,74.5451
2023-05-05T02:31:00.350Z,73.8636
2023-05-05T02:32:02.944Z,73.1330
2023-05-05T02:33:05.602Z,73.0996
2023-05-05T02:34:08.132Z,72.8899
2023-05-05T02:35:10.709Z,72.2721
2023-05-05T02:36:13.550Z,72.7667
2023-05-05T02:37:15.920Z,73.8765
2023-05-05T02:38:18.542Z,74.7254
2023-05-05T02:39:21.130Z,74.7646
2023-05-05T02:40:23.751Z,74.3471
2023-05-05T02:41:26.324Z,73.8613
2023-05-05T02:42:28.959Z,73.8920
2023-05-05T02:43:31.565Z,74.0884
2023-05-05T02:44:34.178Z,74.6246
2023-05-05T02:45:36.749Z,74.4710
2023-05-05T02:46:39.403Z,74.8786
2023-05-05T02:47:41.986Z,75.1447
2023-05-05T02:50:04.355Z,74.9007
2023-05-05T02:51:06.924Z,74.7010
2023-05-05T02:52:09.563Z,74.2780
2023-05-05T02:53:12.242Z,74.2941
2023-05-05T02:54:14.796Z,74.5949
2023-05-05T02:57:10.864Z,74.6228
2023-05-05T02:58:13.437Z,74.8751
2023-05-05T02:59:16.428Z,74.5060
2023-05-05T03:00:18.651Z,74.5641
2023-05-05T03:01:21.317Z,74.4501
2023-05-05T03:02:23.905Z,74.3301
2023-05-05T03:03:26.510Z,74.2017
2023-05-05T03:04:29.095Z,73.9303
2023-05-05T03:05:31.674Z,73.8758
2023-05-05T03:06:34.308Z,73.5019
2023-05-05T03:07:36.888Z,73.2636
2023-05-05T03:08:39.500Z,72.9537
2023-05-05T03:09:42.086Z,72.7326
2023-05-05T03:10:44.718Z,72.5801
2023-05-05T03:11:47.298Z,72.7559
2023-05-05T03:12:49.933Z,72.2145
2023-05-05T03:13:52.495Z,71.4233
2023-05-05T03:14:55.161Z,71.8011
2023-05-05T03:15:57.734Z,71.3370
2023-05-05T03:17:00.319Z,70.5583
2023-05-05T03:18:02.987Z,70.1684
2023-05-05T03:19:05.520Z,70.0067
2023-05-05T03:20:08.353Z,69.7655
2023-05-05T03:21:10.706Z,69.3527
2023-05-05T03:24:06.764Z,70.4303
2023-05-05T03:25:09.396Z,71.2160
2023-05-05T03:26:12.000Z,71.5846
2023-05-05T03:27:14.606Z,71.6725
2023-05-05T03:28:17.192Z,71.8652
2023-05-05T03:29:19.830Z,72.3652
2023-05-05T03:30:22.404Z,71.2770
2023-05-05T03:31:25.047Z,71.2270
2023-05-05T03:32:27.622Z,71.1831
2023-05-05T03:33:30.235Z,71.4594
2023-05-05T03:34:32.819Z,71.8102
2023-05-05T03:35:35.442Z,71.8827
2023-05-05T03:36:38.037Z,71.8562
2023-05-05T03:37:40.658Z,71.5674
2023-05-05T03:38:43.220Z,71.5301
2023-05-05T03:39:45.853Z,71.5536
2023-05-05T03:40:48.430Z,71.6341
2023-05-05T03:41:51.061Z,71.7741
2023-05-05T03:42:53.680Z,72.1379
2023-05-05T03:43:56.280Z,72.1725
2023-05-05T03:44:58.854Z,72.3356
2023-05-05T03:46:01.510Z,72.1670
2023-05-05T03:47:04.049Z,71.7466
2023-05-05T03:48:06.738Z,71.8613
2023-05-05T03:49:09.269Z,71.7218
2023-05-05T03:50:11.896Z,71.5310
2023-05-05T03:51:14.467Z,71.4105
2023-05-05T03:52:17.087Z,71.6359
2023-05-05T03:53:19.667Z,71.5653
2023-05-05T03:54:22.309Z,71.3918
2023-05-05T03:55:24.893Z,71.6118
2023-05-05T03:56:27.507Z,71.6893
2023-05-05T03:57:30.077Z,71.6819
2023-05-05T03:58:32.725Z,71.4593
2023-05-05T04:00:45.446Z,71.1370
2023-05-05T04:01:48.017Z,70.8953
2023-05-05T04:02:50.730Z,70.9390
2023-05-05T04:03:53.321Z,70.7712
2023-05-05T04:04:55.926Z,70.7848
2023-05-05T04:05:58.450Z,71.1309
2023-05-05T04:07:01.070Z,71.4269
2023-05-05T04:08:03.662Z,71.7760
2023-05-05T04:10:40.467Z,70.9114
2023-05-05T04:11:43.247Z,70.7278
2023-05-05T04:12:45.692Z,70.7178
2023-05-05T04:13:48.322Z,71.2168
2023-05-05T04:14:50.898Z,71.0771
2023-05-05T04:15:53.574Z,71.0734
2023-05-05T04:16:56.111Z,71.3299
2023-05-05T04:17:58.819Z,71.4961
2023-05-05T04:19:01.329Z,71.3679
2023-05-05T04:20:03.946Z,71.4245
2023-05-05T04:21:06.563Z,71.4211
2023-05-05T04:22:09.212Z,71.6671
2023-05-05T04:23:11.736Z,71.1522
2023-05-05T04:24:14.362Z,71.1959
2023-05-05T04:25:16.945Z,71.1275
2023-05-05T04:26:19.578Z,71.4235
2023-05-05T04:27:22.141Z,71.8201
2023-05-05T04:28:24.784Z,71.8223
2023-05-05T04:29:27.365Z,71.9257
2023-05-05T04:30:29.986Z,72.1589
2023-05-05T04:31:32.610Z,72.2987
2023-05-05T04:32:35.287Z,72.0836
2023-05-05T04:33:37.789Z,72.0958
2023-05-05T04:34:40.412Z,72.2530
2023-05-05T04:35:42.985Z,72.3598
2023-05-05T04:36:45.711Z,71.8072
2023-05-05T04:37:48.190Z,71.9103
2023-05-05T04:38:50.864Z,71.8021
2023-05-05T04:39:53.412Z,71.5683
2023-05-05T04:40:56.028Z,71.9542
2023-05-05T04:41:58.602Z,72.0408
2023-05-05T04:43:01.241Z,72.0129
2023-05-05T04:44:03.805Z,71.4262
2023-05-05T04:45:06.833Z,71.0731
2023-05-05T04:46:09.058Z,71.6145
2023-05-05T04:47:13.261Z,71.3439
2023-05-05T04:48:14.549Z,70.7371
2023-05-05T04:49:16.849Z,70.8775
2023-05-05T04:50:19.425Z,70.6058
2023-05-05T04:51:22.054Z,71.0295
2023-05-05T04:54:08.472Z,71.5133
2023-05-05T04:55:11.056Z,71.2213
2023-05-05T04:56:13.673Z,71.4679
2023-05-05T04:57:16.264Z,70.6849
2023-05-05T04:58:18.892Z,70.2297
2023-05-05T04:59:21.493Z,70.1272
2023-05-05T05:00:24.112Z,70.4203
2023-05-05T05:01:26.720Z,70.5922
2023-05-05T05:02:29.361Z,71.0277
2023-05-05T05:03:32.070Z,71.0196
2023-05-05T05:04:34.512Z,70.8805
2023-05-05T05:05:37.207Z,70.6951
2023-05-05T05:06:39.701Z,70.8583
2023-05-05T05:07:42.274Z,69.9977
2023-05-05T05:08:44.892Z,69.1089
2023-05-05T05:09:47.480Z,68.9251
2023-05-05T05:10:50.093Z,69.7990
2023-05-05T05:11:52.711Z,70.9500
2023-05-05T05:12:55.358Z,70.8847
2023-05-05T05:13:57.875Z,70.6951
2023-05-05T05:15:00.517Z,70.2625
2023-05-05T05:16:03.091Z,69.6677
2023-05-05T05:17:05.694Z,70.0643
2023-05-05T05:18:08.325Z,69.7132
2023-05-05T05:19:10.896Z,69.6041
2023-05-05T05:20:13.473Z,69.9789
2023-05-05T05:21:16.358Z,71.2714
2023-05-05T05:22:18.679Z,71.5830
2023-05-05T05:23:21.302Z,72.3537
2023-05-05T05:24:23.864Z,72.3831
2023-05-05T05:25:26.493Z,72.8270
2023-05-05T05:26:29.068Z,73.1055
2023-05-05T05:27:31.717Z,73.0176
2023-05-05T05:28:34.333Z,72.7197
2023-05-05T05:29:36.900Z,72.7365
2023-05-05T05:30:39.490Z,72.9752
2023-05-05T05:31:42.169Z,71.3120
2023-05-05T05:32:44.710Z,70.5683
2023-05-05T05:33:47.297Z,71.5935
2023-05-05T05:34:49.868Z,71.0081
2023-05-05T05:35:52.775Z,71.3033
2023-05-05T05:36:55.091Z,70.1417
2023-05-05T05:37:57.699Z,70.0825
2023-05-05T05:39:00.265Z,69.7131
2023-05-05T05:40:02.897Z,69.3683
2023-05-05T05:41:05.463Z,70.3510
2023-05-05T05:42:08.071Z,69.4574
2023-05-05T05:43:10.655Z,69.3928
2023-05-05T05:44:13.292Z,69.6819
2023-05-05T05:45:16.166Z,69.6813
2023-05-05T05:46:18.486Z,69.9055
2023-05-05T05:47:21.035Z,70.2335
2023-05-05T05:48:23.675Z,70.2688
2023-05-05T05:49:26.248Z,69.9043
2023-05-05T05:50:28.870Z,70.4327
2023-05-05T05:51:31.446Z,70.6250
2023-05-05T05:52:34.055Z,69.6311
2023-05-05T05:53:36.649Z,69.8048
2023-05-05T05:54:39.253Z,70.4762
2023-05-05T05:55:41.880Z,70.3444
2023-05-05T05:56:44.460Z,69.5654
2023-05-05T05:57:47.023Z,69.9167
2023-05-05T05:59:54.890Z,69.1040
2023-05-05T06:00:57.508Z,69.7704
2023-05-05T06:02:00.123Z,70.2398
2023-05-05T06:03:02.813Z,68.7148
2023-05-05T06:04:05.341Z,68.5092
2023-05-05T06:05:07.922Z,68.7204
2023-05-05T06:06:10.479Z,68.8513
2023-05-05T06:07:13.100Z,69.2545
2023-05-05T06:08:15.975Z,68.7668
2023-05-05T06:09:18.322Z,68.8293
2023-05-05T06:10:27.981Z,68.5873
2023-05-05T06:11:23.515Z,69.0604
2023-05-05T06:12:26.088Z,69.0911
2023-05-05T06:13:28.721Z,68.9830
2023-05-05T06:14:31.274Z,70.1543
2023-05-05T06:15:33.916Z,69.2905
2023-05-05T06:16:36.478Z,68.6186
2023-05-05T06:17:39.127Z,68.7553
2023-05-05T06:18:41.704Z,68.5747
2023-05-05T06:19:44.295Z,68.0393
2023-05-05T06:20:46.857Z,68.1146
2023-05-05T06:21:49.479Z,69.1851
2023-05-05T06:22:52.085Z,68.7052
2023-05-05T06:23:54.699Z,69.0970
2023-05-05T06:24:57.250Z,68.7430
2023-05-05T06:25:59.867Z,69.0268
2023-05-05T06:27:02.446Z,68.5126
2023-05-05T06:28:05.128Z,68.3518
2023-05-05T06:29:07.621Z,68.7612
2023-05-05T06:30:10.502Z,68.5804
2023-05-05T06:31:12.877Z,69.2140
2023-05-05T06:32:15.438Z,69.1066
2023-05-05T06:33:18.013Z,69.1413
2023-05-05T06:34:20.628Z,68.8487
2023-05-05T06:35:23.203Z,68.3624
2023-05-05T06:36:25.876Z,66.8828
2023-05-05T06:37:28.372Z,66.3551
2023-05-05T06:38:30.989Z,67.0063
2023-05-05T06:39:33.554Z,67.3988
2023-05-05T06:40:36.175Z,66.7683
2023-05-05T06:41:38.782Z,67.0445
2023-05-05T06:42:41.370Z,66.5902
2023-05-05T06:43:43.950Z,66.9474
2023-05-05T06:44:46.545Z,67.0470
2023-05-05T06:45:49.350Z,65.9204
2023-05-05T06:46:51.773Z,65.5230
2023-05-05T06:47:54.328Z,65.8186
2023-05-05T06:48:56.905Z,65.5792
2023-05-05T06:49:59.474Z,66.0761
2023-05-05T06:51:02.927Z,65.5414
2023-05-05T06:52:04.661Z,65.0272
2023-05-05T06:53:07.293Z,65.8930
2023-05-05T06:54:09.841Z,65.9502
2023-05-05T06:55:12.479Z,64.8818
2023-05-05T06:56:15.017Z,63.6047
2023-05-05T06:57:17.641Z,64.1776
2023-05-05T06:58:20.209Z,64.6517
2023-05-05T06:59:23.109Z,63.7196
2023-05-05T07:00:25.389Z,63.5955
2023-05-05T07:01:28.067Z,63.5940
2023-05-05T07:02:30.574Z,63.1019
2023-05-05T07:03:33.190Z,62.6194
2023-05-05T07:04:35.741Z,63.0560
2023-05-05T07:05:38.365Z,63.6825
2023-05-05T07:06:40.931Z,63.0921
2023-05-05T07:07:43.532Z,63.4871
2023-05-05T07:08:46.100Z,63.5956
2023-05-05T07:09:48.706Z,63.9034
2023-05-05T07:10:51.281Z,64.1824
2023-05-05T07:11:53.887Z,63.9676
2023-05-05T07:12:56.601Z,63.8512
2023-05-05T07:13:59.071Z,63.8019
2023-05-05T07:15:09.304Z,64.4184
2023-05-05T07:16:04.299Z,64.6873
2023-05-05T07:17:06.802Z,63.3737
2023-05-05T07:18:09.914Z,62.8581
2023-05-05T07:19:11.990Z,63.6227
2023-05-05T07:20:14.602Z,63.3714
2023-05-05T07:21:17.175Z,63.4879
2023-05-05T07:22:19.813Z,63.2167
2023-05-05T07:23:22.334Z,62.8147
2023-05-05T07:24:24.952Z,62.9718
2023-05-05T07:25:27.515Z,63.8510
2023-05-05T07:26:30.150Z,63.6061
2023-05-05T07:27:32.703Z,63.2276
2023-05-05T07:28:35.322Z,63.0486
2023-05-05T07:29:37.878Z,62.7790
2023-05-05T07:30:40.498Z,61.9560
2023-05-05T07:31:43.087Z,61.5356
2023-05-05T07:32:45.720Z,61.0642
2023-05-05T07:33:48.213Z,62.2581
2023-05-05T07:34:50.844Z,62.6700
2023-05-05T07:35:53.400Z,61.5048
2023-05-05T07:36:56.003Z,61.0056
2023-05-05T07:37:58.568Z,61.1065
2023-05-05T07:39:01.177Z,60.6693
2023-05-05T07:40:03.746Z,60.2320
2023-05-05T07:41:06.362Z,59.3230
2023-05-05T07:42:08.909Z,59.5547
2023-05-05T07:43:11.518Z,59.5467
2023-05-05T07:44:14.090Z,59.8242
2023-05-05T07:45:17.193Z,59.2013
2023-05-05T07:46:19.402Z,59.0807
2023-05-05T07:47:22.028Z,58.7895
2023-05-05T07:48:24.436Z,58.1874
2023-05-05T07:49:27.033Z,58.1892
2023-05-05T07:50:29.893Z,58.6754
2023-05-05T07:51:33.953Z,58.4098
2023-05-05T07:52:46.630Z,58.8962
2023-05-05T07:53:37.392Z,58.7338
2023-05-05T07:54:39.950Z,58.3337
2023-05-05T07:55:42.553Z,58.6834
2023-05-05T07:56:45.117Z,58.4543
2023-05-05T07:59:41.018Z,57.9311
2023-05-05T08:00:43.632Z,58.0275
2023-05-05T08:01:46.277Z,58.7884
2023-05-05T08:02:48.900Z,58.1971
2023-05-05T08:03:51.469Z,58.2470
2023-05-05T08:04:53.992Z,58.3002
2023-05-05T08:05:56.556Z,58.4897
2023-05-05T08:06:59.167Z,59.8557
2023-05-05T08:09:02.339Z,58.4550
2023-05-05T08:10:04.929Z,58.2426
2023-05-05T08:11:07.515Z,58.1487
2023-05-05T08:12:10.088Z,58.8780
2023-05-05T08:13:12.819Z,57.7961
2023-05-05T08:14:15.284Z,57.7495
2023-05-05T08:15:17.882Z,58.0123
2023-05-05T08:16:20.537Z,59.2949
2023-05-05T08:17:23.205Z,58.6679
2023-05-05T08:18:25.629Z,56.4229
2023-05-05T08:19:29.491Z,56.3789
2023-05-05T08:20:30.820Z,55.9050
2023-05-05T08:21:33.440Z,56.4781
2023-05-05T08:22:35.982Z,56.4384
2023-05-05T08:23:38.600Z,56.4392
2023-05-05T08:24:41.159Z,57.1188
2023-05-05T08:25:43.797Z,55.7591
2023-05-05T08:26:46.365Z,54.7607
2023-05-05T08:27:48.943Z,55.7555
2023-05-05T08:28:51.505Z,55.8882
2023-05-05T08:29:54.119Z,55.1807
2023-05-05T08:30:56.673Z,55.0458
2023-05-05T08:31:59.326Z,55.4171
2023-05-05T08:33:02.094Z,56.1224
2023-05-05T08:34:04.474Z,55.4188
2023-05-05T08:35:07.705Z,56.5854
2023-05-05T08:36:09.642Z,56.7798
2023-05-05T08:37:12.219Z,56.1898
2023-05-05T08:38:14.814Z,54.7688
2023-05-05T08:39:17.583Z,54.6613
2023-05-05T08:40:19.983Z,54.9346
2023-05-05T08:41:22.559Z,55.4645
2023-05-05T08:42:36.374Z,57.1691
2023-05-05T08:43:27.710Z,55.6520
2023-05-05T08:44:30.361Z,55.5915
2023-05-05T08:46:38.068Z,56.9268
2023-05-05T08:47:40.686Z,57.8014
2023-05-05T08:48:43.282Z,57.8250
2023-05-05T08:49:45.812Z,56.5596
2023-05-05T08:50:48.415Z,55.2195
2023-05-05T08:51:50.959Z,55.8876
2023-05-05T08:52:53.622Z,56.9214
2023-05-05T08:53:56.152Z,56.5642
2023-05-05T08:54:58.733Z,58.3971
2023-05-05T08:56:01.299Z,57.5909
2023-05-05T08:57:03.932Z,56.1746
2023-05-05T08:58:06.482Z,55.7321
2023-05-05T08:59:09.092Z,54.9618
2023-05-05T09:00:11.647Z,55.0946
2023-05-05T09:01:14.607Z,55.7972
2023-05-05T09:02:16.910Z,55.6549
2023-05-05T09:03:19.482Z,56.9748
2023-05-05T09:04:22.089Z,56.1803
2023-05-05T09:05:24.620Z,56.0620
2023-05-05T09:06:27.171Z,56.3332
2023-05-05T09:07:29.789Z,57.1219
2023-05-05T09:08:32.360Z,55.6156
2023-05-05T09:09:34.962Z,54.9187
2023-05-05T09:10:37.526Z,55.3794
2023-05-05T09:11:40.123Z,55.3229
2023-05-05T09:12:42.731Z,55.5389
2023-05-05T09:13:45.284Z,55.2673
2023-05-05T09:14:47.854Z,55.6179
2023-05-05T09:15:50.464Z,55.7167
2023-05-05T09:16:53.061Z,55.5008
2023-05-05T09:17:55.673Z,54.7563
2023-05-05T09:18:58.204Z,55.4588
2023-05-05T09:20:00.857Z,56.0096
2023-05-05T09:21:03.381Z,56.0319
2023-05-05T09:22:06.001Z,56.1308
2023-05-05T09:23:08.579Z,55.3341
2023-05-05T09:24:11.176Z,55.5102
2023-05-05T09:25:13.730Z,55.0047
2023-05-05T09:26:16.360Z,54.3392
2023-05-05T09:27:19.473Z,54.6078
2023-05-05T09:28:21.533Z,54.0935
2023-05-05T09:29:24.073Z,53.4641
2023-05-05T09:30:26.687Z,54.3176
2023-05-05T09:31:29.314Z,54.6576
2023-05-05T09:32:31.844Z,54.3122
2023-05-05T09:33:34.409Z,54.7670
2023-05-05T09:34:37.029Z,54.9283
2023-05-05T09:35:39.684Z,55.8190
2023-05-05T09:36:42.264Z,55.4920
2023-05-05T09:37:44.760Z,54.8918
2023-05-05T09:38:47.357Z,55.0988
2023-05-05T09:39:49.926Z,55.1207
2023-05-05T09:40:52.527Z,55.2034
2023-05-05T09:41:55.093Z,55.2921
2023-05-05T09:42:57.698Z,55.5122
2023-05-05T09:44:00.257Z,55.9227
2023-05-05T09:45:02.868Z,56.1884
2023-05-05T09:46:05.459Z,56.4935
2023-05-05T09:47:18.098Z,57.3298
2023-05-05T09:48:10.621Z,56.7009
2023-05-05T09:49:13.219Z,56.2048
2023-05-05T09:50:15.777Z,54.8009
2023-05-05T09:51:18.574Z,54.7466
2023-05-05T09:52:20.949Z,55.0851
2023-05-05T09:53:23.559Z,54.8700
2023-05-05T09:54:26.129Z,55.7220
2023-05-05T09:55:28.720Z,55.6164
2023-05-05T09:56:31.284Z,55.5568
2023-05-05T09:57:33.902Z,55.4375
2023-05-05T09:58:36.568Z,55.8386
2023-05-05T09:59:39.074Z,54.7901
2023-05-05T10:00:41.629Z,54.7762
2023-05-05T10:01:44.267Z,54.9896
2023-05-05T10:02:46.834Z,55.8502
2023-05-05T10:03:49.411Z,55.9517
2023-05-05T10:04:52.075Z,55.9834
2023-05-05T10:05:54.591Z,56.0524
2023-05-05T10:06:57.266Z,55.5892
2023-05-05T10:07:59.746Z,55.1192
2023-05-05T10:09:02.311Z,55.5602
2023-05-05T10:10:05.133Z,54.2314
2023-05-05T10:11:07.493Z,54.6155
2023-05-05T10:12:10.102Z,53.7313
2023-05-05T10:13:12.755Z,53.7868
2023-05-05T10:14:15.255Z,53.8259
2023-05-05T10:15:17.823Z,54.1954
2023-05-05T10:16:20.494Z,53.8821
2023-05-05T10:17:22.984Z,54.9264
2023-05-05T10:18:25.730Z,54.7170
2023-05-05T10:19:28.137Z,54.0671
2023-05-05T10:20:30.750Z,52.9353
2023-05-05T10:21:33.304Z,53.7246
2023-05-05T10:22:35.978Z,53.8929
2023-05-05T10:23:38.468Z,54.2079
2023-05-05T10:24:41.074Z,56.9246
2023-05-05T10:26:39.582Z,56.4343
2023-05-05T10:27:42.560Z,56.7149
2023-05-05T10:28:44.567Z,58.1114
2023-05-05T10:29:47.121Z,57.9630
2023-05-05T10:30:49.727Z,57.3989
2023-05-05T10:31:52.317Z,55.0942
2023-05-05T10:33:07.961Z,53.7975
2023-05-05T10:33:57.480Z,53.2704
2023-05-05T10:35:00.058Z,51.5910
2023-05-05T10:36:03.681Z,52.0089
2023-05-05T10:37:07.281Z,50.9850
2023-05-05T10:38:07.849Z,50.9436
2023-05-05T10:39:12.445Z,51.0381
2023-05-05T10:40:12.945Z,52.8549
2023-05-05T10:41:15.557Z,54.0341
2023-05-05T10:42:18.693Z,53.9360
2023-05-05T10:43:20.710Z,54.2153
2023-05-05T10:44:23.261Z,54.4692
2023-05-05T10:45:27.996Z,54.1017
2023-05-05T10:46:28.475Z,53.6719
2023-05-05T10:47:33.084Z,54.7130
2023-05-05T10:48:33.626Z,55.5611
2023-05-05T10:49:36.204Z,56.6256
2023-05-05T10:50:38.771Z,57.4737
2023-05-05T10:51:41.462Z,57.2965
2023-05-05T10:52:43.959Z,57.3856
2023-05-05T10:53:46.667Z,56.7172
2023-05-05T10:54:49.117Z,54.3588
2023-05-05T10:55:51.719Z,54.4351
2023-05-05T10:56:54.289Z,54.7336
2023-05-05T10:57:56.894Z,53.7989
2023-05-05T10:59:00.773Z,55.7235
2023-05-05T11:00:02.070Z,56.0905
2023-05-05T11:01:04.669Z,53.3980
2023-05-05T11:02:07.238Z,53.4461
2023-05-05T11:03:09.818Z,53.3917
2023-05-05T11:04:12.416Z,51.3687
2023-05-05T11:05:15.007Z,51.0885
2023-05-05T11:06:17.545Z,51.7450
2023-05-05T11:07:20.299Z,52.7880
2023-05-05T11:08:22.721Z,53.2862
2023-05-05T11:09:25.398Z,53.9103
2023-05-05T11:10:27.880Z,54.4562
2023-05-05T11:11:30.444Z,54.9697
2023-05-05T11:12:33.109Z,54.8885
2023-05-05T11:13:35.619Z,55.3525
2023-05-05T11:14:38.221Z,55.7635
2023-05-05T11:15:40.792Z,56.1923
2023-05-05T11:16:43.438Z,56.7037
2023-05-05T11:17:46.030Z,56.7850
2023-05-05T11:18:48.577Z,57.5583
2023-05-05T11:19:51.140Z,58.2513
2023-05-05T11:20:53.741Z,58.2305
2023-05-05T11:21:56.303Z,57.1210
2023-05-05T11:22:58.922Z,57.0067
2023-05-05T11:24:01.476Z,57.0942
2023-05-05T11:25:04.191Z,58.5667
2023-05-05T11:26:06.643Z,58.0921
2023-05-05T11:27:09.245Z,56.3566
2023-05-05T11:28:11.842Z,56.5780
2023-05-05T11:29:14.831Z,56.9037
2023-05-05T11:30:16.960Z,56.3699
2023-05-05T11:31:19.946Z,54.8316
2023-05-05T11:32:22.129Z,54.8569
2023-05-05T11:33:24.746Z,55.0328
2023-05-05T11:34:27.305Z,54.7839
2023-05-05T11:35:29.901Z,54.6194
2023-05-05T11:36:32.460Z,54.5691
2023-05-05T11:37:35.061Z,53.1688
2023-05-05T11:38:37.623Z,52.7531
2023-05-05T11:39:40.222Z,52.6377
2023-05-05T11:40:42.853Z,52.8519
2023-05-05T11:41:45.385Z,53.1131
2023-05-05T11:42:47.935Z,52.6103
2023-05-05T11:43:50.542Z,53.0967
2023-05-05T11:44:53.105Z,53.9011
2023-05-05T11:45:55.754Z,53.0497
2023-05-05T11:47:01.068Z,51.8320
2023-05-05T11:48:00.911Z,53.0583
2023-05-05T11:49:03.432Z,53.5376
2023-05-05T11:50:06.170Z,53.6472
2023-05-05T11:51:08.577Z,54.2346
2023-05-05T11:52:11.181Z,54.2599
2023-05-05T11:53:13.723Z,52.7901
2023-05-05T11:54:16.333Z,50.2366
2023-05-05T11:55:18.892Z,49.7587
2023-05-05T11:56:21.559Z,49.6034
2023-05-05T11:57:24.044Z,51.2392
2023-05-05T11:58:26.650Z,50.2111
2023-05-05T11:59:29.475Z,50.4494
2023-05-05T12:00:31.815Z,49.1919
2023-05-05T12:01:34.377Z,49.1552
2023-05-05T12:02:37.034Z,49.7023
2023-05-05T12:03:39.609Z,50.8125
2023-05-05T12:04:42.171Z,51.2057
2023-05-05T12:05:44.671Z,50.8925
2023-05-05T12:06:47.281Z,50.9613
2023-05-05T12:07:49.831Z,51.2951
2023-05-05T12:08:52.446Z,49.9240
2023-05-05T12:09:55.005Z,49.1959
2023-05-05T12:10:57.592Z,50.7221
2023-05-05T12:12:00.218Z,51.8343
2023-05-05T12:13:02.837Z,52.8181
2023-05-05T12:14:05.306Z,52.7046
2023-05-05T12:15:07.934Z,51.5251
2023-05-05T12:16:10.503Z,51.0633
2023-05-05T12:17:13.061Z,52.4260
2023-05-05T12:18:15.616Z,52.5191
2023-05-05T12:19:18.228Z,52.6368
2023-05-05T12:20:20.827Z,52.5730
2023-05-05T12:21:23.383Z,51.5406
2023-05-05T12:22:25.950Z,52.3709
2023-05-05T12:23:28.540Z,52.9904
2023-05-05T12:24:31.094Z,52.7636
2023-05-05T12:25:33.709Z,51.2008
2023-05-05T12:26:36.248Z,51.4202
2023-05-05T12:27:39.021Z,51.3108
2023-05-05T12:28:41.411Z,51.2087
2023-05-05T12:29:44.012Z,51.3048
2023-05-05T12:30:46.615Z,51.0567
2023-05-05T12:31:49.186Z,50.2443
2023-05-05T12:32:51.753Z,51.0051
2023-05-05T12:33:54.331Z,49.7486
2023-05-05T12:34:56.916Z,49.2135
2023-05-05T12:35:59.494Z,49.7910
2023-05-05T12:37:02.035Z,51.3857
2023-05-05T12:38:04.646Z,51.8089
2023-05-05T12:39:07.205Z,51.4411
2023-05-05T12:40:10.053Z,50.8182
2023-05-05T12:41:12.354Z,50.3552
2023-05-05T12:42:14.956Z,51.2144
2023-05-05T12:43:17.510Z,51.1578
2023-05-05T12:44:20.112Z,50.9679
2023-05-05T12:45:22.716Z,49.8613
2023-05-05T12:46:25.374Z,50.5768
2023-05-05T12:47:27.818Z,50.0953
2023-05-05T12:48:30.453Z,51.0912
2023-05-05T12:49:32.965Z,49.7285
2023-05-05T12:50:35.583Z,48.9376
2023-05-05T12:51:38.133Z,48.6686
2023-05-05T12:52:40.740Z,49.7230
2023-05-05T12:53:43.301Z,50.2013
2023-05-05T12:54:45.895Z,49.1349
2023-05-05T12:55:48.443Z,48.6829